Welcome to the New NWS' Forecast!
Most changes are behind the scenes, but click here for differences you might notice.

Terminal Aerodrome Forecast (TAF)

Issued by National Weather Service (NWS)

                            
372 
FTUS42 KKEY 140534
TAFEYW
TAF
KEYW 140534Z 1406/1506 11008KT P6SM FEW030
     FM140800 12007KT P6SM VCSH SCT030
     FM142000 13009KT P6SM FEW020=